Time;durP1;ratioP1;P1;durP2;ratioP2;P2;SDS_P1;SDS_P2;PMS_P1;PMS_P2;Temp;Humidity;BMP_temperature;BMP_pressure;BME280_temperature;BME280_humidity;BME280_pressure;Samples;Min_cycle;Max_cycle;Signal;HPM_P1;HPM_P2
2022/05/03 10:44:56;;;;;;;6.83;4.00;;;;;;;28.47;20.76;100111.75;31087183;28;96612;-72
2022/05/03 10:59:57;;;;;;;6.33;3.80;;;;;;;27.82;21.76;100115.72;31087001;28;96782;-78
2022/05/03 11:15:04;;;;;;;7.15;3.72;;;;;;;26.72;22.36;100103.00;31076003;28;98065;-69
2022/05/03 11:30:10;;;;;;;7.20;3.63;;;;;;;26.39;22.05;100088.91;31073671;28;97755;-77
2022/05/03 11:45:13;;;;;;;5.57;3.33;;;;;;;27.03;22.06;100086.44;31049018;28;96692;-76
2022/05/03 12:00:14;;;;;;;7.90;3.47;;;;;;;27.42;21.99;100082.09;30990092;28;96633;-71
2022/05/03 12:15:20;;;;;;;5.77;4.20;;;;;;;28.07;21.18;100081.00;30988175;28;99600;-76
2022/05/03 12:30:20;;;;;;;6.03;3.97;;;;;;;28.12;19.87;100061.78;30987707;28;96994;-69
2022/05/03 12:45:29;;;;;;;7.82;3.85;;;;;;;27.80;21.52;100057.69;30983636;28;106881;-68
2022/05/03 13:00:32;;;;;;;5.43;4.23;;;;;;;26.29;23.34;100046.06;30973723;28;97174;-67
2022/05/03 13:15:33;;;;;;;6.77;3.63;;;;;;;26.67;23.17;100046.44;30983173;28;98522;-67
2022/05/03 13:30:33;;;;;;;6.82;3.28;;;;;;;27.73;21.77;100016.19;30982005;28;101416;-66
2022/05/03 13:45:34;;;;;;;5.18;3.33;;;;;;;27.43;21.63;100012.63;30981418;28;97748;-67
2022/05/03 14:00:35;;;;;;;6.70;3.60;;;;;;;26.81;22.36;100018.53;31024502;28;105245;-78
2022/05/03 14:15:36;;;;;;;6.17;3.27;;;;;;;25.65;23.52;100004.72;31034330;28;97054;-80
2022/05/03 14:30:36;;;;;;;7.03;3.72;;;;;;;25.00;24.82;100020.78;31005949;28;97006;-73
2022/05/03 14:45:37;;;;;;;6.20;3.33;;;;;;;24.49;25.11;100021.47;30963499;28;98638;-74
2022/05/03 15:15:58;;;;;;;11.87;3.60;;;;;;;23.64;26.71;100006.88;30906543;28;97401;-77
2022/05/03 15:30:59;;;;;;;4.57;3.43;;;;;;;23.17;27.37;100002.19;30957660;28;97020;-77
2022/05/03 15:46:04;;;;;;;7.80;3.90;;;;;;;23.24;27.78;99997.34;30985440;28;97262;-71
2022/05/03 16:01:05;;;;;;;8.17;4.53;;;;;;;22.30;29.19;99999.31;30979236;28;97039;-75
2022/05/03 16:16:05;;;;;;;10.77;5.00;;;;;;;21.69;30.12;99989.28;30977676;28;97240;-77
2022/05/03 16:31:07;;;;;;;6.97;4.38;;;;;;;21.33;30.76;99985.19;30974736;28;106045;-75
2022/05/03 16:46:07;;;;;;;7.33;4.50;;;;;;;20.68;31.65;99985.44;30979465;28;97572;-75
2022/05/03 17:01:07;;;;;;;7.18;3.97;;;;;;;20.13;32.58;99989.44;30976636;28;98023;-75
2022/05/03 17:16:08;;;;;;;8.82;4.93;;;;;;;19.78;33.28;99993.00;31007438;28;97161;-74
2022/05/03 17:31:08;;;;;;;8.63;4.97;;;;;;;19.41;33.04;99994.06;30979385;28;111906;-73
2022/05/03 17:46:10;;;;;;;6.32;4.50;;;;;;;18.90;34.50;100019.75;30976128;28;96740;-72
2022/05/03 18:01:15;;;;;;;9.07;5.70;;;;;;;18.40;36.18;100026.22;30977584;28;96763;-73
2022/05/03 18:16:15;;;;;;;10.00;7.17;;;;;;;17.90;37.21;100036.03;30976686;28;96995;-72
2022/05/03 18:31:16;;;;;;;8.35;5.25;;;;;;;17.68;37.99;100050.97;30974540;28;96946;-73
2022/05/03 18:46:16;;;;;;;9.88;5.53;;;;;;;17.05;38.90;100064.22;30966354;28;97120;-74
2022/05/03 19:01:17;;;;;;;7.68;5.63;;;;;;;16.20;40.68;100073.25;30985415;28;100934;-76
2022/05/03 19:16:17;;;;;;;8.50;5.82;;;;;;;15.63;41.82;100098.88;30993350;28;96741;-74
2022/05/03 19:31:17;;;;;;;9.43;6.28;;;;;;;15.10;43.07;100094.25;30940059;28;96764;-75
2022/05/03 19:46:18;;;;;;;11.70;6.57;;;;;;;14.66;44.25;100129.34;30857411;28;97319;-71
2022/05/03 20:01:18;;;;;;;11.20;6.93;;;;;;;14.26;45.66;100122.91;30975341;28;97261;-75
2022/05/03 20:16:19;;;;;;;15.77;6.90;;;;;;;14.20;46.57;100129.88;30912975;28;98465;-69
2022/05/03 20:31:23;;;;;;;11.80;7.68;;;;;;;14.31;47.14;100140.06;30976775;28;97284;-71
2022/05/03 21:01:42;;;;;;;11.93;7.60;;;;;;;14.19;47.63;100161.19;30979411;28;97598;-73
2022/05/03 21:16:42;;;;;;;14.80;7.88;;;;;;;13.83;48.08;100164.81;30980940;28;97783;-70
2022/05/03 21:31:44;;;;;;;14.85;7.80;;;;;;;13.58;48.96;100167.03;30980318;28;97081;-72
2022/05/03 21:46:44;;;;;;;13.87;8.83;;;;;;;13.23;50.00;100169.53;30979677;28;97232;-71
2022/05/03 22:01:45;;;;;;;16.95;9.85;;;;;;;12.92;50.99;100183.16;30929944;28;96698;-68
2022/05/03 22:16:45;;;;;;;14.10;10.25;;;;;;;12.59;51.48;100197.69;30979198;28;96734;-70
2022/05/03 22:31:45;;;;;;;23.52;11.23;;;;;;;12.31;52.48;100187.59;30977078;28;97192;-69
2022/05/03 22:46:46;;;;;;;20.15;11.75;;;;;;;12.08;52.99;100193.00;30948964;28;104554;-72
2022/05/03 23:01:46;;;;;;;26.77;14.05;;;;;;;11.96;54.44;100187.25;30920311;28;112247;-71
2022/05/03 23:16:46;;;;;;;36.85;15.45;;;;;;;11.66;55.39;100187.13;30851863;28;97164;-71
2022/05/03 23:31:47;;;;;;;27.05;12.45;;;;;;;11.25;56.40;100206.03;30858385;28;97450;-68
2022/05/03 23:46:48;;;;;;;17.02;11.52;;;;;;;11.02;57.22;100208.63;30885906;28;97119;-68
